sensor_id;sensor_type;location;lat;lon;timestamp;P1;durP1;ratioP1;P2;durP2;ratioP2
21647;SDS011;10985;54.182;7.890;2022-08-19T00:02:02;3.90;;;3.22;;
21647;SDS011;10985;54.182;7.890;2022-08-19T00:04:30;7.20;;;3.00;;
21647;SDS011;10985;54.182;7.890;2022-08-19T00:06:59;4.90;;;2.83;;
21647;SDS011;10985;54.182;7.890;2022-08-19T00:09:25;6.22;;;3.40;;
21647;SDS011;10985;54.182;7.890;2022-08-19T00:11:51;4.30;;;2.72;;
21647;SDS011;10985;54.182;7.890;2022-08-19T00:14:17;6.22;;;2.97;;
21647;SDS011;10985;54.182;7.890;2022-08-19T00:16:44;3.38;;;2.75;;
21647;SDS011;10985;54.182;7.890;2022-08-19T00:19:11;5.13;;;2.60;;
21647;SDS011;10985;54.182;7.890;2022-08-19T00:21:37;3.38;;;2.85;;
21647;SDS011;10985;54.182;7.890;2022-08-19T00:24:04;4.70;;;2.60;;
21647;SDS011;10985;54.182;7.890;2022-08-19T00:26:31;6.55;;;2.90;;
21647;SDS011;10985;54.182;7.890;2022-08-19T00:28:57;4.13;;;2.70;;
21647;SDS011;10985;54.182;7.890;2022-08-19T00:31:22;4.25;;;2.60;;
21647;SDS011;10985;54.182;7.890;2022-08-19T00:33:50;4.75;;;2.75;;
21647;SDS011;10985;54.182;7.890;2022-08-19T00:36:16;3.55;;;3.05;;
21647;SDS011;10985;54.182;7.890;2022-08-19T00:38:42;6.35;;;3.05;;
21647;SDS011;10985;54.182;7.890;2022-08-19T00:41:08;5.63;;;2.88;;
21647;SDS011;10985;54.182;7.890;2022-08-19T00:43:37;3.83;;;2.65;;
21647;SDS011;10985;54.182;7.890;2022-08-19T00:46:03;8.55;;;2.85;;
21647;SDS011;10985;54.182;7.890;2022-08-19T00:48:29;7.45;;;2.80;;
21647;SDS011;10985;54.182;7.890;2022-08-19T00:50:56;4.25;;;2.90;;
21647;SDS011;10985;54.182;7.890;2022-08-19T00:53:23;7.47;;;3.35;;
21647;SDS011;10985;54.182;7.890;2022-08-19T00:55:52;6.97;;;3.10;;
21647;SDS011;10985;54.182;7.890;2022-08-19T00:58:20;5.53;;;2.50;;
21647;SDS011;10985;54.182;7.890;2022-08-19T01:00:49;7.13;;;3.10;;
21647;SDS011;10985;54.182;7.890;2022-08-19T01:03:16;3.97;;;2.92;;
21647;SDS011;10985;54.182;7.890;2022-08-19T01:05:43;5.25;;;2.88;;
21647;SDS011;10985;54.182;7.890;2022-08-19T01:08:10;5.72;;;3.38;;
21647;SDS011;10985;54.182;7.890;2022-08-19T01:10:43;6.30;;;3.13;;
21647;SDS011;10985;54.182;7.890;2022-08-19T01:13:13;3.33;;;2.80;;
21647;SDS011;10985;54.182;7.890;2022-08-19T01:15:42;5.22;;;2.63;;
21647;SDS011;10985;54.182;7.890;2022-08-19T01:18:12;3.17;;;2.90;;
21647;SDS011;10985;54.182;7.890;2022-08-19T01:20:40;5.97;;;3.17;;
21647;SDS011;10985;54.182;7.890;2022-08-19T01:23:06;3.45;;;2.80;;
21647;SDS011;10985;54.182;7.890;2022-08-19T01:25:39;4.63;;;2.72;;
21647;SDS011;10985;54.182;7.890;2022-08-19T01:28:14;3.90;;;2.58;;
21647;SDS011;10985;54.182;7.890;2022-08-19T01:30:45;6.35;;;2.60;;
21647;SDS011;10985;54.182;7.890;2022-08-19T01:33:11;4.95;;;2.63;;
21647;SDS011;10985;54.182;7.890;2022-08-19T01:35:37;6.47;;;3.10;;
21647;SDS011;10985;54.182;7.890;2022-08-19T01:38:05;4.45;;;3.17;;
21647;SDS011;10985;54.182;7.890;2022-08-19T01:40:33;5.78;;;3.20;;
21647;SDS011;10985;54.182;7.890;2022-08-19T01:43:00;3.25;;;2.72;;
21647;SDS011;10985;54.182;7.890;2022-08-19T01:45:26;5.07;;;2.90;;
21647;SDS011;10985;54.182;7.890;2022-08-19T01:47:54;4.95;;;2.50;;
21647;SDS011;10985;54.182;7.890;2022-08-19T01:50:20;4.72;;;2.65;;
21647;SDS011;10985;54.182;7.890;2022-08-19T01:52:46;5.53;;;3.05;;
21647;SDS011;10985;54.182;7.890;2022-08-19T01:55:14;5.78;;;2.60;;
21647;SDS011;10985;54.182;7.890;2022-08-19T01:57:43;4.30;;;2.75;;
21647;SDS011;10985;54.182;7.890;2022-08-19T02:00:13;5.10;;;2.83;;
21647;SDS011;10985;54.182;7.890;2022-08-19T02:02:41;4.35;;;3.05;;
21647;SDS011;10985;54.182;7.890;2022-08-19T02:05:07;5.10;;;2.70;;
21647;SDS011;10985;54.182;7.890;2022-08-19T02:07:33;5.00;;;2.95;;
21647;SDS011;10985;54.182;7.890;2022-08-19T02:10:04;3.65;;;2.47;;
21647;SDS011;10985;54.182;7.890;2022-08-19T02:12:31;4.75;;;3.10;;
21647;SDS011;10985;54.182;7.890;2022-08-19T02:14:58;4.68;;;2.60;;
21647;SDS011;10985;54.182;7.890;2022-08-19T02:17:24;6.03;;;3.00;;
21647;SDS011;10985;54.182;7.890;2022-08-19T02:19:50;4.10;;;3.08;;
21647;SDS011;10985;54.182;7.890;2022-08-19T02:22:15;4.38;;;2.90;;
21647;SDS011;10985;54.182;7.890;2022-08-19T02:24:41;4.63;;;2.83;;
21647;SDS011;10985;54.182;7.890;2022-08-19T02:27:07;4.03;;;3.20;;
21647;SDS011;10985;54.182;7.890;2022-08-19T02:29:32;9.90;;;3.35;;
21647;SDS011;10985;54.182;7.890;2022-08-19T02:31:58;6.72;;;3.03;;
21647;SDS011;10985;54.182;7.890;2022-08-19T02:34:23;5.18;;;2.92;;
21647;SDS011;10985;54.182;7.890;2022-08-19T02:36:50;4.82;;;2.90;;
21647;SDS011;10985;54.182;7.890;2022-08-19T02:39:16;5.15;;;3.38;;
21647;SDS011;10985;54.182;7.890;2022-08-19T02:41:42;5.80;;;3.42;;
21647;SDS011;10985;54.182;7.890;2022-08-19T02:44:07;4.07;;;3.40;;
21647;SDS011;10985;54.182;7.890;2022-08-19T02:46:33;6.50;;;3.17;;
21647;SDS011;10985;54.182;7.890;2022-08-19T02:49:00;3.83;;;2.90;;
21647;SDS011;10985;54.182;7.890;2022-08-19T02:51:31;5.75;;;2.95;;
21647;SDS011;10985;54.182;7.890;2022-08-19T02:53:59;6.10;;;2.95;;
21647;SDS011;10985;54.182;7.890;2022-08-19T02:56:25;8.05;;;3.95;;
21647;SDS011;10985;54.182;7.890;2022-08-19T02:58:53;3.92;;;3.30;;
21647;SDS011;10985;54.182;7.890;2022-08-19T03:01:23;3.58;;;2.88;;
21647;SDS011;10985;54.182;7.890;2022-08-19T03:03:51;3.95;;;2.65;;
21647;SDS011;10985;54.182;7.890;2022-08-19T03:06:17;6.22;;;2.90;;
21647;SDS011;10985;54.182;7.890;2022-08-19T03:08:44;5.70;;;3.17;;
21647;SDS011;10985;54.182;7.890;2022-08-19T03:11:19;11.98;;;3.47;;
21647;SDS011;10985;54.182;7.890;2022-08-19T03:13:48;8.95;;;3.13;;
21647;SDS011;10985;54.182;7.890;2022-08-19T03:16:15;5.30;;;3.25;;
21647;SDS011;10985;54.182;7.890;2022-08-19T03:18:43;4.90;;;2.80;;
21647;SDS011;10985;54.182;7.890;2022-08-19T03:21:09;4.22;;;3.30;;
21647;SDS011;10985;54.182;7.890;2022-08-19T03:23:39;6.78;;;3.33;;
21647;SDS011;10985;54.182;7.890;2022-08-19T03:26:05;4.85;;;3.20;;
21647;SDS011;10985;54.182;7.890;2022-08-19T03:28:31;5.68;;;3.55;;
21647;SDS011;10985;54.182;7.890;2022-08-19T03:31:01;7.32;;;3.17;;
21647;SDS011;10985;54.182;7.890;2022-08-19T03:33:30;3.95;;;3.22;;
21647;SDS011;10985;54.182;7.890;2022-08-19T03:36:16;4.95;;;3.03;;
21647;SDS011;10985;54.182;7.890;2022-08-19T03:38:49;3.70;;;2.85;;
21647;SDS011;10985;54.182;7.890;2022-08-19T03:41:20;8.25;;;3.60;;
21647;SDS011;10985;54.182;7.890;2022-08-19T03:43:48;5.97;;;3.03;;
21647;SDS011;10985;54.182;7.890;2022-08-19T03:46:16;3.70;;;2.78;;
21647;SDS011;10985;54.182;7.890;2022-08-19T03:48:45;3.33;;;3.03;;
21647;SDS011;10985;54.182;7.890;2022-08-19T03:51:16;4.20;;;3.50;;
21647;SDS011;10985;54.182;7.890;2022-08-19T03:53:44;5.07;;;3.00;;
21647;SDS011;10985;54.182;7.890;2022-08-19T03:56:10;7.63;;;3.78;;
21647;SDS011;10985;54.182;7.890;2022-08-19T03:58:36;7.00;;;3.33;;
21647;SDS011;10985;54.182;7.890;2022-08-19T04:01:06;3.85;;;3.15;;
21647;SDS011;10985;54.182;7.890;2022-08-19T04:03:33;3.55;;;2.60;;
21647;SDS011;10985;54.182;7.890;2022-08-19T04:06:08;9.27;;;3.75;;
21647;SDS011;10985;54.182;7.890;2022-08-19T04:08:35;6.53;;;3.50;;
21647;SDS011;10985;54.182;7.890;2022-08-19T04:11:01;5.82;;;3.58;;
21647;SDS011;10985;54.182;7.890;2022-08-19T04:13:35;3.63;;;2.80;;
21647;SDS011;10985;54.182;7.890;2022-08-19T04:16:00;3.53;;;3.05;;
21647;SDS011;10985;54.182;7.890;2022-08-19T04:18:26;6.95;;;3.42;;
21647;SDS011;10985;54.182;7.890;2022-08-19T04:20:54;3.75;;;2.90;;
21647;SDS011;10985;54.182;7.890;2022-08-19T04:23:20;4.28;;;2.92;;
21647;SDS011;10985;54.182;7.890;2022-08-19T04:25:45;4.40;;;3.50;;
21647;SDS011;10985;54.182;7.890;2022-08-19T04:28:11;3.90;;;3.35;;
21647;SDS011;10985;54.182;7.890;2022-08-19T04:30:48;3.45;;;3.15;;
21647;SDS011;10985;54.182;7.890;2022-08-19T04:33:15;3.50;;;3.20;;
21647;SDS011;10985;54.182;7.890;2022-08-19T04:35:45;5.85;;;3.33;;
21647;SDS011;10985;54.182;7.890;2022-08-19T04:38:13;5.28;;;3.33;;
21647;SDS011;10985;54.182;7.890;2022-08-19T04:40:44;4.63;;;3.60;;
21647;SDS011;10985;54.182;7.890;2022-08-19T04:43:31;8.95;;;3.42;;
21647;SDS011;10985;54.182;7.890;2022-08-19T04:45:58;6.40;;;3.80;;
21647;SDS011;10985;54.182;7.890;2022-08-19T04:48:30;4.32;;;3.30;;
21647;SDS011;10985;54.182;7.890;2022-08-19T04:50:56;3.40;;;3.20;;
21647;SDS011;10985;54.182;7.890;2022-08-19T04:53:26;3.40;;;3.10;;
21647;SDS011;10985;54.182;7.890;2022-08-19T04:55:57;6.10;;;3.38;;
21647;SDS011;10985;54.182;7.890;2022-08-19T04:58:26;3.92;;;3.63;;
21647;SDS011;10985;54.182;7.890;2022-08-19T05:00:53;4.43;;;3.65;;
21647;SDS011;10985;54.182;7.890;2022-08-19T05:03:19;8.27;;;4.60;;
21647;SDS011;10985;54.182;7.890;2022-08-19T05:05:46;7.15;;;4.72;;
21647;SDS011;10985;54.182;7.890;2022-08-19T05:08:16;6.60;;;5.20;;
21647;SDS011;10985;54.182;7.890;2022-08-19T05:10:45;5.60;;;4.93;;
21647;SDS011;10985;54.182;7.890;2022-08-19T05:13:12;5.50;;;4.57;;
21647;SDS011;10985;54.182;7.890;2022-08-19T05:15:37;6.03;;;4.30;;
21647;SDS011;10985;54.182;7.890;2022-08-19T05:18:03;7.80;;;4.07;;
21647;SDS011;10985;54.182;7.890;2022-08-19T05:20:47;5.13;;;3.88;;
21647;SDS011;10985;54.182;7.890;2022-08-19T05:23:31;6.03;;;4.43;;
21647;SDS011;10985;54.182;7.890;2022-08-19T05:25:57;5.50;;;3.88;;
21647;SDS011;10985;54.182;7.890;2022-08-19T05:28:22;4.30;;;3.78;;
21647;SDS011;10985;54.182;7.890;2022-08-19T05:30:48;8.15;;;3.95;;
21647;SDS011;10985;54.182;7.890;2022-08-19T05:33:15;3.75;;;3.03;;
21647;SDS011;10985;54.182;7.890;2022-08-19T05:35:42;5.40;;;3.00;;
21647;SDS011;10985;54.182;7.890;2022-08-19T05:38:09;3.30;;;3.00;;
21647;SDS011;10985;54.182;7.890;2022-08-19T05:40:36;8.90;;;3.80;;
21647;SDS011;10985;54.182;7.890;2022-08-19T05:43:03;3.75;;;3.38;;
21647;SDS011;10985;54.182;7.890;2022-08-19T05:45:29;5.70;;;3.58;;
21647;SDS011;10985;54.182;7.890;2022-08-19T05:47:55;4.40;;;3.45;;
21647;SDS011;10985;54.182;7.890;2022-08-19T05:50:21;8.40;;;3.03;;
21647;SDS011;10985;54.182;7.890;2022-08-19T05:52:47;4.55;;;4.15;;
21647;SDS011;10985;54.182;7.890;2022-08-19T05:55:12;6.43;;;3.70;;
21647;SDS011;10985;54.182;7.890;2022-08-19T05:57:38;8.25;;;3.70;;
21647;SDS011;10985;54.182;7.890;2022-08-19T06:00:05;7.93;;;3.38;;
21647;SDS011;10985;54.182;7.890;2022-08-19T06:02:35;7.03;;;4.63;;
21647;SDS011;10985;54.182;7.890;2022-08-19T06:05:02;10.02;;;7.28;;
21647;SDS011;10985;54.182;7.890;2022-08-19T06:07:28;9.13;;;5.03;;
21647;SDS011;10985;54.182;7.890;2022-08-19T06:09:54;4.85;;;4.45;;
21647;SDS011;10985;54.182;7.890;2022-08-19T06:12:20;5.75;;;4.07;;
21647;SDS011;10985;54.182;7.890;2022-08-19T06:14:55;5.65;;;4.10;;
21647;SDS011;10985;54.182;7.890;2022-08-19T06:17:20;8.95;;;5.72;;
21647;SDS011;10985;54.182;7.890;2022-08-19T06:19:49;5.13;;;3.40;;
21647;SDS011;10985;54.182;7.890;2022-08-19T06:22:15;3.72;;;3.42;;
21647;SDS011;10985;54.182;7.890;2022-08-19T06:24:41;4.90;;;4.10;;
21647;SDS011;10985;54.182;7.890;2022-08-19T06:27:07;7.57;;;4.00;;
21647;SDS011;10985;54.182;7.890;2022-08-19T06:29:33;4.35;;;3.72;;
21647;SDS011;10985;54.182;7.890;2022-08-19T06:32:00;4.55;;;3.40;;
21647;SDS011;10985;54.182;7.890;2022-08-19T06:34:28;6.25;;;3.92;;
21647;SDS011;10985;54.182;7.890;2022-08-19T06:36:56;6.78;;;4.32;;
21647;SDS011;10985;54.182;7.890;2022-08-19T06:39:27;4.68;;;4.28;;
21647;SDS011;10985;54.182;7.890;2022-08-19T06:41:58;8.10;;;4.65;;
21647;SDS011;10985;54.182;7.890;2022-08-19T06:44:26;6.28;;;3.88;;
21647;SDS011;10985;54.182;7.890;2022-08-19T06:46:54;6.55;;;4.00;;
21647;SDS011;10985;54.182;7.890;2022-08-19T06:49:20;4.75;;;4.10;;
21647;SDS011;10985;54.182;7.890;2022-08-19T06:51:47;5.25;;;3.53;;
21647;SDS011;10985;54.182;7.890;2022-08-19T06:54:14;4.57;;;3.33;;
21647;SDS011;10985;54.182;7.890;2022-08-19T06:56:40;8.52;;;3.33;;
21647;SDS011;10985;54.182;7.890;2022-08-19T06:59:08;7.75;;;3.67;;
21647;SDS011;10985;54.182;7.890;2022-08-19T07:01:40;6.53;;;3.90;;
21647;SDS011;10985;54.182;7.890;2022-08-19T07:04:09;10.15;;;8.95;;
21647;SDS011;10985;54.182;7.890;2022-08-19T07:06:35;5.57;;;2.60;;
21647;SDS011;10985;54.182;7.890;2022-08-19T07:09:02;5.82;;;2.97;;
21647;SDS011;10985;54.182;7.890;2022-08-19T07:11:29;4.10;;;2.60;;
21647;SDS011;10985;54.182;7.890;2022-08-19T07:13:55;4.53;;;2.65;;
21647;SDS011;10985;54.182;7.890;2022-08-19T07:16:21;4.53;;;3.13;;
21647;SDS011;10985;54.182;7.890;2022-08-19T07:18:50;3.50;;;2.50;;
21647;SDS011;10985;54.182;7.890;2022-08-19T07:23:44;3.17;;;1.90;;
21647;SDS011;10985;54.182;7.890;2022-08-19T07:26:12;5.68;;;2.42;;
21647;SDS011;10985;54.182;7.890;2022-08-19T07:28:39;4.35;;;2.65;;
21647;SDS011;10985;54.182;7.890;2022-08-19T07:31:06;3.92;;;2.55;;
21647;SDS011;10985;54.182;7.890;2022-08-19T07:33:32;5.53;;;2.38;;
21647;SDS011;10985;54.182;7.890;2022-08-19T07:36:00;7.53;;;2.35;;
21647;SDS011;10985;54.182;7.890;2022-08-19T07:38:26;3.75;;;2.90;;
21647;SDS011;10985;54.182;7.890;2022-08-19T07:40:51;3.75;;;2.22;;
21647;SDS011;10985;54.182;7.890;2022-08-19T07:43:17;3.85;;;2.40;;
21647;SDS011;10985;54.182;7.890;2022-08-19T07:45:47;4.65;;;2.00;;
21647;SDS011;10985;54.182;7.890;2022-08-19T07:48:13;4.70;;;2.90;;
21647;SDS011;10985;54.182;7.890;2022-08-19T07:50:39;5.22;;;2.40;;
21647;SDS011;10985;54.182;7.890;2022-08-19T07:53:05;4.68;;;2.20;;
21647;SDS011;10985;54.182;7.890;2022-08-19T07:55:31;4.95;;;2.75;;
21647;SDS011;10985;54.182;7.890;2022-08-19T07:57:56;5.80;;;2.40;;
21647;SDS011;10985;54.182;7.890;2022-08-19T08:00:22;3.15;;;2.40;;
21647;SDS011;10985;54.182;7.890;2022-08-19T08:02:48;3.75;;;2.22;;
21647;SDS011;10985;54.182;7.890;2022-08-19T08:05:13;2.58;;;1.85;;
21647;SDS011;10985;54.182;7.890;2022-08-19T08:07:57;3.33;;;1.80;;
21647;SDS011;10985;54.182;7.890;2022-08-19T08:10:41;2.85;;;1.80;;
21647;SDS011;10985;54.182;7.890;2022-08-19T08:13:07;2.65;;;1.77;;
21647;SDS011;10985;54.182;7.890;2022-08-19T08:15:33;8.80;;;2.22;;
21647;SDS011;10985;54.182;7.890;2022-08-19T08:17:59;3.90;;;1.58;;
21647;SDS011;10985;54.182;7.890;2022-08-19T08:20:24;3.00;;;1.70;;
21647;SDS011;10985;54.182;7.890;2022-08-19T08:22:50;2.03;;;1.25;;
21647;SDS011;10985;54.182;7.890;2022-08-19T08:25:35;2.17;;;1.42;;
21647;SDS011;10985;54.182;7.890;2022-08-19T08:28:01;2.20;;;1.45;;
21647;SDS011;10985;54.182;7.890;2022-08-19T08:30:28;3.35;;;1.67;;
21647;SDS011;10985;54.182;7.890;2022-08-19T08:32:55;2.67;;;1.70;;
21647;SDS011;10985;54.182;7.890;2022-08-19T08:35:21;3.03;;;2.13;;
21647;SDS011;10985;54.182;7.890;2022-08-19T08:37:49;1.88;;;1.55;;
21647;SDS011;10985;54.182;7.890;2022-08-19T08:43:49;2.60;;;2.03;;
21647;SDS011;10985;54.182;7.890;2022-08-19T08:49:04;3.15;;;1.55;;
21647;SDS011;10985;54.182;7.890;2022-08-19T08:52:01;3.65;;;1.38;;
21647;SDS011;10985;54.182;7.890;2022-08-19T08:54:30;5.60;;;1.58;;
21647;SDS011;10985;54.182;7.890;2022-08-19T08:56:59;3.85;;;1.40;;
21647;SDS011;10985;54.182;7.890;2022-08-19T08:59:26;3.50;;;1.20;;
21647;SDS011;10985;54.182;7.890;2022-08-19T09:01:57;2.92;;;1.45;;
21647;SDS011;10985;54.182;7.890;2022-08-19T09:04:23;3.55;;;1.58;;
21647;SDS011;10985;54.182;7.890;2022-08-19T09:09:40;3.50;;;1.50;;
21647;SDS011;10985;54.182;7.890;2022-08-19T09:12:17;3.08;;;1.60;;
21647;SDS011;10985;54.182;7.890;2022-08-19T09:15:06;2.92;;;1.20;;
21647;SDS011;10985;54.182;7.890;2022-08-19T09:17:34;3.03;;;0.98;;
21647;SDS011;10985;54.182;7.890;2022-08-19T09:20:02;1.75;;;1.10;;
21647;SDS011;10985;54.182;7.890;2022-08-19T09:22:33;4.00;;;1.00;;
21647;SDS011;10985;54.182;7.890;2022-08-19T09:25:00;2.80;;;1.10;;
21647;SDS011;10985;54.182;7.890;2022-08-19T09:27:26;2.47;;;1.00;;
21647;SDS011;10985;54.182;7.890;2022-08-19T09:29:53;2.33;;;1.33;;
21647;SDS011;10985;54.182;7.890;2022-08-19T09:32:19;1.83;;;0.93;;
21647;SDS011;10985;54.182;7.890;2022-08-19T09:34:45;4.53;;;1.10;;
21647;SDS011;10985;54.182;7.890;2022-08-19T09:37:12;5.18;;;1.20;;
21647;SDS011;10985;54.182;7.890;2022-08-19T09:39:38;2.22;;;1.10;;
21647;SDS011;10985;54.182;7.890;2022-08-19T09:42:06;1.60;;;0.90;;
21647;SDS011;10985;54.182;7.890;2022-08-19T09:44:36;1.85;;;1.25;;
21647;SDS011;10985;54.182;7.890;2022-08-19T09:47:06;1.58;;;0.95;;
21647;SDS011;10985;54.182;7.890;2022-08-19T09:49:32;1.58;;;0.80;;
21647;SDS011;10985;54.182;7.890;2022-08-19T09:51:58;3.83;;;1.00;;
21647;SDS011;10985;54.182;7.890;2022-08-19T09:54:23;4.65;;;1.20;;
21647;SDS011;10985;54.182;7.890;2022-08-19T09:56:49;3.38;;;1.08;;
21647;SDS011;10985;54.182;7.890;2022-08-19T09:59:15;2.03;;;0.82;;
21647;SDS011;10985;54.182;7.890;2022-08-19T10:01:41;3.22;;;1.25;;
21647;SDS011;10985;54.182;7.890;2022-08-19T10:04:07;2.28;;;1.15;;
21647;SDS011;10985;54.182;7.890;2022-08-19T10:06:37;3.75;;;1.17;;
21647;SDS011;10985;54.182;7.890;2022-08-19T10:09:04;4.07;;;1.02;;
21647;SDS011;10985;54.182;7.890;2022-08-19T10:11:32;3.60;;;1.00;;
21647;SDS011;10985;54.182;7.890;2022-08-19T10:14:00;2.80;;;1.17;;
21647;SDS011;10985;54.182;7.890;2022-08-19T10:16:26;1.90;;;0.90;;
21647;SDS011;10985;54.182;7.890;2022-08-19T10:18:52;2.22;;;0.70;;
21647;SDS011;10985;54.182;7.890;2022-08-19T10:21:20;2.45;;;0.98;;
21647;SDS011;10985;54.182;7.890;2022-08-19T10:23:48;1.42;;;0.80;;
21647;SDS011;10985;54.182;7.890;2022-08-19T10:26:17;1.77;;;0.80;;
21647;SDS011;10985;54.182;7.890;2022-08-19T10:28:45;2.45;;;0.88;;
21647;SDS011;10985;54.182;7.890;2022-08-19T10:31:12;1.63;;;0.80;;
21647;SDS011;10985;54.182;7.890;2022-08-19T10:33:39;2.63;;;0.77;;
21647;SDS011;10985;54.182;7.890;2022-08-19T10:36:07;1.00;;;0.80;;
21647;SDS011;10985;54.182;7.890;2022-08-19T10:38:35;3.45;;;0.90;;
21647;SDS011;10985;54.182;7.890;2022-08-19T10:41:09;1.42;;;0.77;;
21647;SDS011;10985;54.182;7.890;2022-08-19T10:43:40;2.17;;;1.10;;
21647;SDS011;10985;54.182;7.890;2022-08-19T10:46:07;2.40;;;1.10;;
21647;SDS011;10985;54.182;7.890;2022-08-19T10:48:37;2.60;;;1.08;;
21647;SDS011;10985;54.182;7.890;2022-08-19T10:51:03;2.60;;;0.80;;
21647;SDS011;10985;54.182;7.890;2022-08-19T10:53:48;2.45;;;1.00;;
21647;SDS011;10985;54.182;7.890;2022-08-19T10:56:15;1.27;;;0.70;;
21647;SDS011;10985;54.182;7.890;2022-08-19T10:59:00;1.50;;;0.80;;
21647;SDS011;10985;54.182;7.890;2022-08-19T11:01:28;1.27;;;0.90;;
21647;SDS011;10985;54.182;7.890;2022-08-19T11:03:55;1.60;;;1.00;;
21647;SDS011;10985;54.182;7.890;2022-08-19T11:06:22;4.35;;;1.17;;
21647;SDS011;10985;54.182;7.890;2022-08-19T11:08:49;2.28;;;1.00;;
21647;SDS011;10985;54.182;7.890;2022-08-19T11:11:16;3.55;;;0.98;;
21647;SDS011;10985;54.182;7.890;2022-08-19T11:13:42;1.65;;;1.05;;
21647;SDS011;10985;54.182;7.890;2022-08-19T11:16:10;2.50;;;0.88;;
21647;SDS011;10985;54.182;7.890;2022-08-19T11:18:48;3.67;;;1.42;;
21647;SDS011;10985;54.182;7.890;2022-08-19T11:21:16;4.28;;;0.68;;
21647;SDS011;10985;54.182;7.890;2022-08-19T11:23:44;2.22;;;1.10;;
21647;SDS011;10985;54.182;7.890;2022-08-19T11:26:12;0.95;;;0.50;;
21647;SDS011;10985;54.182;7.890;2022-08-19T11:28:39;2.28;;;0.82;;
21647;SDS011;10985;54.182;7.890;2022-08-19T11:31:09;2.10;;;0.80;;
21647;SDS011;10985;54.182;7.890;2022-08-19T11:33:38;2.10;;;1.17;;
21647;SDS011;10985;54.182;7.890;2022-08-19T11:36:04;1.88;;;0.90;;
21647;SDS011;10985;54.182;7.890;2022-08-19T11:38:30;2.05;;;0.90;;
21647;SDS011;10985;54.182;7.890;2022-08-19T11:40:59;2.75;;;0.93;;
21647;SDS011;10985;54.182;7.890;2022-08-19T11:43:26;1.45;;;0.70;;
21647;SDS011;10985;54.182;7.890;2022-08-19T11:45:53;2.92;;;1.00;;
21647;SDS011;10985;54.182;7.890;2022-08-19T11:48:20;1.17;;;0.50;;
21647;SDS011;10985;54.182;7.890;2022-08-19T11:50:49;1.35;;;0.80;;
21647;SDS011;10985;54.182;7.890;2022-08-19T11:53:15;2.50;;;1.00;;
21647;SDS011;10985;54.182;7.890;2022-08-19T11:55:43;1.13;;;0.60;;
21647;SDS011;10985;54.182;7.890;2022-08-19T11:58:09;2.30;;;1.70;;
21647;SDS011;10985;54.182;7.890;2022-08-19T12:00:35;3.58;;;1.80;;
21647;SDS011;10985;54.182;7.890;2022-08-19T12:03:02;1.30;;;0.70;;
21647;SDS011;10985;54.182;7.890;2022-08-19T12:05:28;2.47;;;1.00;;
21647;SDS011;10985;54.182;7.890;2022-08-19T12:07:53;3.00;;;0.63;;
21647;SDS011;10985;54.182;7.890;2022-08-19T12:10:20;2.15;;;0.80;;
21647;SDS011;10985;54.182;7.890;2022-08-19T12:12:46;1.80;;;1.00;;
21647;SDS011;10985;54.182;7.890;2022-08-19T12:15:11;1.67;;;0.75;;
21647;SDS011;10985;54.182;7.890;2022-08-19T12:17:39;4.03;;;1.00;;
21647;SDS011;10985;54.182;7.890;2022-08-19T12:20:07;2.35;;;0.93;;
21647;SDS011;10985;54.182;7.890;2022-08-19T12:22:36;2.15;;;0.63;;
21647;SDS011;10985;54.182;7.890;2022-08-19T12:25:03;2.13;;;0.93;;
21647;SDS011;10985;54.182;7.890;2022-08-19T12:27:30;2.03;;;1.08;;
21647;SDS011;10985;54.182;7.890;2022-08-19T12:29:56;2.70;;;2.22;;
21647;SDS011;10985;54.182;7.890;2022-08-19T12:32:22;2.38;;;0.90;;
21647;SDS011;10985;54.182;7.890;2022-08-19T12:34:48;3.63;;;0.93;;
21647;SDS011;10985;54.182;7.890;2022-08-19T12:37:14;1.50;;;0.90;;
21647;SDS011;10985;54.182;7.890;2022-08-19T12:39:40;2.25;;;1.00;;
21647;SDS011;10985;54.182;7.890;2022-08-19T12:42:08;2.15;;;1.10;;
21647;SDS011;10985;54.182;7.890;2022-08-19T12:44:35;4.63;;;1.17;;
21647;SDS011;10985;54.182;7.890;2022-08-19T12:47:04;1.98;;;1.10;;
21647;SDS011;10985;54.182;7.890;2022-08-19T12:49:30;2.55;;;1.08;;
21647;SDS011;10985;54.182;7.890;2022-08-19T12:51:58;1.10;;;0.80;;
21647;SDS011;10985;54.182;7.890;2022-08-19T12:54:25;4.00;;;0.90;;
21647;SDS011;10985;54.182;7.890;2022-08-19T12:56:51;1.73;;;0.82;;
21647;SDS011;10985;54.182;7.890;2022-08-19T12:59:16;3.83;;;1.15;;
21647;SDS011;10985;54.182;7.890;2022-08-19T13:01:43;1.52;;;0.98;;
21647;SDS011;10985;54.182;7.890;2022-08-19T13:04:10;2.55;;;1.35;;
21647;SDS011;10985;54.182;7.890;2022-08-19T13:06:35;2.58;;;1.10;;
21647;SDS011;10985;54.182;7.890;2022-08-19T13:09:02;2.08;;;1.00;;
21647;SDS011;10985;54.182;7.890;2022-08-19T13:11:28;3.28;;;1.33;;
21647;SDS011;10985;54.182;7.890;2022-08-19T13:13:57;2.90;;;1.30;;
21647;SDS011;10985;54.182;7.890;2022-08-19T13:16:24;1.88;;;0.80;;
21647;SDS011;10985;54.182;7.890;2022-08-19T13:18:49;3.00;;;1.05;;
21647;SDS011;10985;54.182;7.890;2022-08-19T13:21:19;3.08;;;1.60;;
21647;SDS011;10985;54.182;7.890;2022-08-19T13:23:47;2.97;;;1.20;;
21647;SDS011;10985;54.182;7.890;2022-08-19T13:26:14;3.38;;;1.65;;
21647;SDS011;10985;54.182;7.890;2022-08-19T13:28:40;1.60;;;1.23;;
21647;SDS011;10985;54.182;7.890;2022-08-19T13:31:26;3.17;;;1.40;;
21647;SDS011;10985;54.182;7.890;2022-08-19T13:34:11;3.05;;;1.42;;
21647;SDS011;10985;54.182;7.890;2022-08-19T13:36:38;4.78;;;3.00;;
21647;SDS011;10985;54.182;7.890;2022-08-19T13:39:04;3.20;;;2.72;;
21647;SDS011;10985;54.182;7.890;2022-08-19T13:41:32;2.30;;;1.20;;
21647;SDS011;10985;54.182;7.890;2022-08-19T13:43:58;3.15;;;1.30;;
21647;SDS011;10985;54.182;7.890;2022-08-19T13:46:24;1.88;;;1.27;;
21647;SDS011;10985;54.182;7.890;2022-08-19T13:48:49;4.93;;;1.65;;
21647;SDS011;10985;54.182;7.890;2022-08-19T13:51:15;4.70;;;1.70;;
21647;SDS011;10985;54.182;7.890;2022-08-19T13:53:42;4.25;;;2.20;;
21647;SDS011;10985;54.182;7.890;2022-08-19T13:56:09;3.33;;;2.30;;
21647;SDS011;10985;54.182;7.890;2022-08-19T13:58:37;3.63;;;1.98;;
21647;SDS011;10985;54.182;7.890;2022-08-19T14:01:03;5.03;;;2.13;;
21647;SDS011;10985;54.182;7.890;2022-08-19T14:03:30;4.82;;;2.20;;
21647;SDS011;10985;54.182;7.890;2022-08-19T14:05:56;3.95;;;2.45;;
21647;SDS011;10985;54.182;7.890;2022-08-19T14:08:22;4.75;;;2.63;;
21647;SDS011;10985;54.182;7.890;2022-08-19T14:10:48;4.15;;;2.20;;
21647;SDS011;10985;54.182;7.890;2022-08-19T14:13:15;3.95;;;2.15;;
21647;SDS011;10985;54.182;7.890;2022-08-19T14:15:42;3.63;;;2.25;;
21647;SDS011;10985;54.182;7.890;2022-08-19T14:18:08;4.07;;;2.50;;
21647;SDS011;10985;54.182;7.890;2022-08-19T14:20:34;5.63;;;3.38;;
21647;SDS011;10985;54.182;7.890;2022-08-19T14:23:00;3.35;;;2.28;;
21647;SDS011;10985;54.182;7.890;2022-08-19T14:25:27;3.65;;;3.00;;
21647;SDS011;10985;54.182;7.890;2022-08-19T14:27:54;6.47;;;3.40;;
21647;SDS011;10985;54.182;7.890;2022-08-19T14:30:21;7.43;;;3.88;;
21647;SDS011;10985;54.182;7.890;2022-08-19T14:32:51;6.78;;;4.05;;
21647;SDS011;10985;54.182;7.890;2022-08-19T14:35:17;6.85;;;3.58;;
21647;SDS011;10985;54.182;7.890;2022-08-19T14:37:43;4.80;;;3.88;;
21647;SDS011;10985;54.182;7.890;2022-08-19T14:40:10;7.65;;;3.80;;
21647;SDS011;10985;54.182;7.890;2022-08-19T14:42:36;6.78;;;4.90;;
21647;SDS011;10985;54.182;7.890;2022-08-19T14:45:03;8.00;;;5.15;;
21647;SDS011;10985;54.182;7.890;2022-08-19T14:47:30;7.20;;;4.60;;
21647;SDS011;10985;54.182;7.890;2022-08-19T14:49:56;5.32;;;4.78;;
21647;SDS011;10985;54.182;7.890;2022-08-19T14:52:21;6.50;;;4.25;;
21647;SDS011;10985;54.182;7.890;2022-08-19T14:54:47;7.93;;;5.22;;
21647;SDS011;10985;54.182;7.890;2022-08-19T14:57:13;6.20;;;5.35;;
21647;SDS011;10985;54.182;7.890;2022-08-19T14:59:39;6.07;;;5.47;;
21647;SDS011;10985;54.182;7.890;2022-08-19T15:02:06;6.90;;;6.15;;
21647;SDS011;10985;54.182;7.890;2022-08-19T15:04:31;6.38;;;5.80;;